createdAt,value
2022-11-28T00:03:07.573Z,31.17
2022-11-28T00:08:09.632Z,28.23
2022-11-28T00:13:11.467Z,25.27
2022-11-28T00:18:13.118Z,23.52
2022-11-28T00:23:14.665Z,26.40
2022-11-28T00:28:16.258Z,27.80
2022-11-28T00:33:17.888Z,26.98
2022-11-28T00:38:19.469Z,28.08
2022-11-28T00:43:21.057Z,22.83
2022-11-28T00:48:23.306Z,27.50
2022-11-28T00:53:24.951Z,24.40
2022-11-28T00:58:26.555Z,22.45
2022-11-28T01:03:28.156Z,23.60
2022-11-28T01:08:30.211Z,22.65
2022-11-28T01:13:31.860Z,24.63
2022-11-28T01:18:33.442Z,22.17
2022-11-28T01:23:35.374Z,26.17
2022-11-28T01:28:36.959Z,29.05
2022-11-28T01:33:38.524Z,25.00
2022-11-28T01:38:41.221Z,24.27
2022-11-28T01:44:01.550Z,23.33
2022-11-28T01:49:13.316Z,22.45
2022-11-28T01:54:16.561Z,23.02
2022-11-28T01:59:20.476Z,26.48
2022-11-28T02:04:25.770Z,24.55
2022-11-28T02:09:27.368Z,23.05
2022-11-28T02:15:03.138Z,24.48
2022-11-28T02:20:38.082Z,23.80
2022-11-28T02:26:15.367Z,21.95
2022-11-28T02:31:36.178Z,21.23
2022-11-28T02:37:03.478Z,22.20
2022-11-28T02:42:15.166Z,21.53
2022-11-28T02:47:32.125Z,23.20
2022-11-28T02:52:39.249Z,23.98
2022-11-28T02:57:53.502Z,21.67
2022-11-28T03:03:25.485Z,23.15
2022-11-28T03:08:42.553Z,22.88
2022-11-28T03:13:59.673Z,25.15
2022-11-28T03:19:20.291Z,21.52
2022-11-28T03:24:24.991Z,21.70
2022-11-28T03:29:41.792Z,26.35
2022-11-28T03:34:47.602Z,27.90
2022-11-28T03:39:54.148Z,23.10
2022-11-28T03:45:05.923Z,23.63
2022-11-28T03:50:16.195Z,21.42
2022-11-28T03:55:24.817Z,21.77
2022-11-28T04:00:27.110Z,20.98
2022-11-28T04:05:49.445Z,22.23
2022-11-28T04:10:59.739Z,22.92
2022-11-28T04:16:11.580Z,21.83
2022-11-28T04:21:23.300Z,24.55
2022-11-28T04:26:32.207Z,21.67
2022-11-28T04:31:35.664Z,23.17
2022-11-28T04:36:41.061Z,23.77
2022-11-28T04:41:50.867Z,25.13
2022-11-28T04:46:55.781Z,18.33
2022-11-28T04:52:10.020Z,22.00
2022-11-28T04:57:21.704Z,20.02
2022-11-28T05:02:24.960Z,25.25
2022-11-28T05:07:26.674Z,21.42
2022-11-28T05:12:28.261Z,25.17
2022-11-28T05:17:30.177Z,17.40
2022-11-28T05:22:31.691Z,21.80
2022-11-28T05:27:33.300Z,19.27
2022-11-28T05:32:36.272Z,19.35
2022-11-28T05:37:38.159Z,19.10
2022-11-28T05:42:39.703Z,20.30
2022-11-28T05:47:41.301Z,19.08
2022-11-28T05:52:42.843Z,17.73
2022-11-28T05:57:44.361Z,18.90
2022-11-28T06:02:45.895Z,20.52
2022-11-28T06:07:47.534Z,17.95
2022-11-28T06:12:49.593Z,16.35
2022-11-28T06:17:51.130Z,18.73
2022-11-28T06:22:52.760Z,19.00
2022-11-28T06:27:54.305Z,19.13
2022-11-28T06:32:55.866Z,22.67
2022-11-28T06:37:57.542Z,18.67
2022-11-28T06:42:59.054Z,19.95
2022-11-28T06:48:01.479Z,17.20
2022-11-28T06:53:03.010Z,18.50
2022-11-28T06:58:04.563Z,17.40
2022-11-28T07:03:06.083Z,19.02
2022-11-28T07:08:07.723Z,16.23
2022-11-28T07:13:09.286Z,16.77
2022-11-28T07:18:10.793Z,18.33
2022-11-28T07:23:12.366Z,16.90
2022-11-28T07:28:13.903Z,16.58
2022-11-28T07:33:15.781Z,21.38
2022-11-28T07:38:17.315Z,27.20
2022-11-28T07:43:18.818Z,19.33
2022-11-28T07:48:20.378Z,17.00
2022-11-28T07:53:22.176Z,16.25
2022-11-28T07:58:23.819Z,15.07
2022-11-28T08:03:25.786Z,16.63
2022-11-28T08:08:31.117Z,15.20
2022-11-28T08:13:38.787Z,15.50
2022-11-28T08:18:41.607Z,20.08
2022-11-28T08:23:47.954Z,12.68
2022-11-28T08:40:25.994Z,16.95
2022-11-28T08:45:27.539Z,18.65
2022-11-28T08:50:29.198Z,19.23
2022-11-28T08:55:41.766Z,18.25
2022-11-28T09:01:25.907Z,17.58
2022-11-28T09:06:50.716Z,16.45
2022-11-28T09:11:53.406Z,15.98
2022-11-28T09:16:55.139Z,18.27
2022-11-28T09:21:58.089Z,16.42
2022-11-28T09:26:59.978Z,19.52
2022-11-28T09:32:01.576Z,16.73
2022-11-28T09:37:05.015Z,18.42
2022-11-28T09:42:17.578Z,14.07
2022-11-28T09:47:26.361Z,15.48
2022-11-28T09:52:45.810Z,16.77
2022-11-28T09:57:49.733Z,16.00
2022-11-28T10:03:11.921Z,18.52
2022-11-28T10:08:28.787Z,16.65
2022-11-28T10:14:08.949Z,17.48
2022-11-28T10:19:31.692Z,14.65
2022-11-28T10:24:48.361Z,14.25
2022-11-28T10:30:04.614Z,16.17
2022-11-28T10:35:13.784Z,15.10
2022-11-28T10:40:34.191Z,16.90
2022-11-28T10:46:04.211Z,15.38
2022-11-28T10:51:38.389Z,16.08
2022-11-28T10:56:45.955Z,15.63
2022-11-28T11:01:50.439Z,15.70
2022-11-28T11:07:16.428Z,15.80
2022-11-28T11:12:27.419Z,13.40
2022-11-28T11:17:36.581Z,15.80
2022-11-28T11:22:38.893Z,16.27
2022-11-28T11:27:49.850Z,17.73
2022-11-28T11:32:51.945Z,15.38
2022-11-28T11:37:55.511Z,18.63
2022-11-28T11:42:59.709Z,18.50
2022-11-28T11:48:03.890Z,14.90
2022-11-28T11:53:15.312Z,18.23
2022-11-28T11:58:25.510Z,15.82
2022-11-28T12:03:42.023Z,16.50
2022-11-28T12:08:51.071Z,18.17
2022-11-28T12:13:53.360Z,16.02
2022-11-28T12:18:57.983Z,21.77
2022-11-28T12:24:13.941Z,16.40
2022-11-28T12:29:40.274Z,16.45
2022-11-28T12:35:09.233Z,16.48
2022-11-28T12:40:38.216Z,16.25
2022-11-28T12:46:15.197Z,15.05
2022-11-28T12:51:49.321Z,16.77
2022-11-28T12:57:11.311Z,13.73
2022-11-28T13:02:55.785Z,13.15
2022-11-28T13:08:03.538Z,16.73
2022-11-28T13:13:17.851Z,16.80
2022-11-28T13:18:40.596Z,20.00
2022-11-28T13:23:56.201Z,17.38
2022-11-28T13:29:19.456Z,17.13
2022-11-28T13:34:21.892Z,17.35
2022-11-28T13:39:33.402Z,15.25
2022-11-28T13:44:50.076Z,14.20
2022-11-28T13:49:51.649Z,14.55
2022-11-28T13:54:56.416Z,16.38
2022-11-28T14:00:20.969Z,16.15
2022-11-28T14:05:38.023Z,14.32
2022-11-28T14:11:05.969Z,16.55
2022-11-28T14:16:17.830Z,13.82
2022-11-28T14:21:55.866Z,14.13
2022-11-28T14:27:00.869Z,18.38
2022-11-28T14:37:29.191Z,14.23
2022-11-28T14:48:16.982Z,21.67
2022-11-28T14:53:34.363Z,18.27
2022-11-28T14:58:36.159Z,17.53
2022-11-28T15:03:56.988Z,16.83
2022-11-28T15:09:14.201Z,18.58
2022-11-28T15:14:23.460Z,16.85
2022-11-28T15:19:30.887Z,17.40
2022-11-28T15:24:38.153Z,17.97
2022-11-28T15:29:39.705Z,16.85
2022-11-28T15:34:41.545Z,15.60
2022-11-28T15:39:46.766Z,20.20
2022-11-28T15:44:56.306Z,17.35
2022-11-28T15:50:11.456Z,17.08
2022-11-28T15:55:17.099Z,17.95
2022-11-28T16:00:21.859Z,16.80
2022-11-28T16:05:23.710Z,19.25
2022-11-28T16:10:31.863Z,24.67
2022-11-28T16:15:33.487Z,18.95
2022-11-28T16:20:37.078Z,26.75
2022-11-28T16:25:38.886Z,24.50
2022-11-28T16:30:48.056Z,26.27
2022-11-28T16:35:49.891Z,22.25
2022-11-28T16:40:59.001Z,23.85
2022-11-28T16:46:03.514Z,28.88
2022-11-28T16:51:11.106Z,21.88
2022-11-28T16:56:26.088Z,22.70
2022-11-28T17:01:29.194Z,18.88
2022-11-28T17:06:39.375Z,19.48
2022-11-28T17:11:44.829Z,19.38
2022-11-28T17:16:46.597Z,19.58
2022-11-28T17:21:51.734Z,25.65
2022-11-28T17:26:54.851Z,22.75
2022-11-28T17:31:58.821Z,21.50
2022-11-28T17:37:01.999Z,25.33
2022-11-28T17:42:04.562Z,25.00
2022-11-28T17:47:06.107Z,22.23
2022-11-28T17:52:09.456Z,21.13
2022-11-28T17:57:11.325Z,23.08
2022-11-28T18:02:13.426Z,40.65
2022-11-28T18:07:15.860Z,47.83
2022-11-28T18:12:17.503Z,36.78
2022-11-28T18:17:19.092Z,33.63
2022-11-28T18:22:20.699Z,26.50
2022-11-28T18:27:22.707Z,24.23
2022-11-28T18:32:24.548Z,25.42
2022-11-28T18:37:26.225Z,31.95
2022-11-28T18:42:27.808Z,26.83
2022-11-28T18:47:29.479Z,26.30
2022-11-28T18:52:32.971Z,23.40
2022-11-28T18:57:35.075Z,22.85
2022-11-28T19:02:36.767Z,26.15
2022-11-28T19:07:38.380Z,25.27
2022-11-28T19:12:41.075Z,24.35
2022-11-28T19:17:42.687Z,24.20
2022-11-28T19:22:44.283Z,24.80
2022-11-28T19:27:45.970Z,24.63
2022-11-28T19:32:47.974Z,25.70
2022-11-28T19:37:51.388Z,24.58
2022-11-28T19:42:52.986Z,22.60
2022-11-28T19:47:54.538Z,23.50
2022-11-28T19:52:56.232Z,23.75
2022-11-28T19:57:57.883Z,22.23
2022-11-28T20:02:59.542Z,22.98
2022-11-28T20:08:01.422Z,22.88
2022-11-28T20:13:03.332Z,25.38
2022-11-28T20:18:04.922Z,23.08
2022-11-28T20:23:06.771Z,22.75
2022-11-28T20:28:08.448Z,21.80
2022-11-28T20:33:10.043Z,22.95
2022-11-28T20:38:12.374Z,22.13
2022-11-28T20:43:13.948Z,21.30
2022-11-28T20:48:15.568Z,25.02
2022-11-28T20:53:19.892Z,24.35
2022-11-28T20:58:25.298Z,22.08
2022-11-28T21:03:27.079Z,24.10
2022-11-28T21:08:31.275Z,23.63
2022-11-28T21:13:33.146Z,24.00
2022-11-28T21:18:36.488Z,22.08
2022-11-28T21:23:38.698Z,22.70
2022-11-28T21:28:42.186Z,20.85
2022-11-28T21:33:48.059Z,20.83
2022-11-28T21:38:54.417Z,24.83
2022-11-28T21:43:56.703Z,22.45
2022-11-28T21:48:58.686Z,24.45
2022-11-28T21:54:00.264Z,24.98
2022-11-28T21:59:01.937Z,23.58
2022-11-28T22:04:04.510Z,21.50
2022-11-28T22:09:09.393Z,24.23
2022-11-28T22:14:12.234Z,22.20
2022-11-28T22:19:14.066Z,27.50
2022-11-28T22:24:17.723Z,26.80
2022-11-28T22:29:19.329Z,25.02
2022-11-28T22:34:21.093Z,25.90
2022-11-28T22:39:22.913Z,24.38
2022-11-28T22:44:24.488Z,24.30
2022-11-28T22:49:27.380Z,25.38
2022-11-28T22:54:28.966Z,26.58
2022-11-28T22:59:33.633Z,26.40
2022-11-28T23:04:35.380Z,25.23
2022-11-28T23:09:38.061Z,27.13
2022-11-28T23:14:42.330Z,28.02
2022-11-28T23:19:44.406Z,27.40
2022-11-28T23:24:46.114Z,24.40
2022-11-28T23:29:47.997Z,26.05
2022-11-28T23:34:49.587Z,25.42
2022-11-28T23:39:51.253Z,25.13
2022-11-28T23:44:52.901Z,25.67
2022-11-28T23:49:54.481Z,27.27
2022-11-28T23:54:56.150Z,25.23
